createdAt,value
2019-02-17T00:01:44.079Z,99.90
2019-02-17T00:04:13.252Z,99.90
2019-02-17T00:06:42.599Z,99.90
2019-02-17T00:09:13.655Z,99.90
2019-02-17T00:11:42.759Z,99.90
2019-02-17T00:14:11.961Z,99.90
2019-02-17T00:16:41.357Z,99.90
2019-02-17T00:19:10.859Z,99.90
2019-02-17T00:21:40.530Z,99.90
2019-02-17T00:24:10.255Z,99.90
2019-02-17T00:26:39.978Z,99.90
2019-02-17T00:29:09.132Z,99.90
2019-02-17T00:31:38.299Z,99.90
2019-02-17T00:34:07.948Z,99.90
2019-02-17T00:36:37.307Z,99.90
2019-02-17T00:39:06.855Z,99.90
2019-02-17T00:41:36.259Z,99.90
2019-02-17T00:44:06.230Z,99.90
2019-02-17T00:46:35.328Z,99.90
2019-02-17T00:49:04.467Z,99.90
2019-02-17T00:51:33.885Z,99.90
2019-02-17T00:54:02.987Z,99.90
2019-02-17T00:56:32.346Z,99.90
2019-02-17T00:59:09.577Z,99.90
2019-02-17T01:01:32.678Z,99.90
2019-02-17T01:04:02.423Z,99.90
2019-02-17T01:06:32.747Z,99.90
2019-02-17T01:09:02.160Z,99.90
2019-02-17T01:11:31.296Z,99.90
2019-02-17T01:14:00.748Z,99.90
2019-02-17T01:16:30.249Z,99.90
2019-02-17T01:18:59.604Z,99.90
2019-02-17T01:21:29.031Z,99.90
2019-02-17T01:23:58.161Z,99.90
2019-02-17T01:26:27.601Z,99.90
2019-02-17T01:28:57.008Z,99.90
2019-02-17T01:31:26.463Z,99.90
2019-02-17T01:33:55.867Z,99.90
2019-02-17T01:36:25.224Z,99.90
2019-02-17T01:38:54.377Z,99.90
2019-02-17T01:41:23.463Z,99.90
2019-02-17T01:43:52.607Z,99.90
2019-02-17T01:46:21.707Z,99.90
2019-02-17T01:48:51.072Z,99.90
2019-02-17T01:51:20.492Z,99.90
2019-02-17T01:53:49.629Z,99.90
2019-02-17T01:56:19.037Z,99.90
2019-02-17T01:58:48.439Z,99.90
2019-02-17T02:01:17.648Z,99.90
2019-02-17T02:03:47.078Z,99.90
2019-02-17T02:06:16.263Z,99.90
2019-02-17T02:08:45.467Z,99.90
2019-02-17T02:11:14.891Z,99.90
2019-02-17T02:13:44.374Z,99.90
2019-02-17T02:16:13.518Z,99.90
2019-02-17T02:18:42.655Z,99.90
2019-02-17T02:21:12.125Z,99.90
2019-02-17T02:23:41.275Z,99.90
2019-02-17T02:26:11.039Z,99.90
2019-02-17T02:28:40.446Z,99.90
2019-02-17T02:31:10.148Z,99.90
2019-02-17T02:33:39.549Z,99.90
2019-02-17T02:36:08.659Z,99.90
2019-02-17T02:38:37.863Z,99.90
2019-02-17T02:41:07.235Z,99.90
2019-02-17T02:43:37.164Z,99.90
2019-02-17T02:46:06.531Z,99.90
2019-02-17T02:48:36.272Z,99.90
2019-02-17T02:51:05.731Z,99.90
2019-02-17T02:53:35.135Z,99.90
2019-02-17T02:56:04.560Z,99.90
2019-02-17T02:58:33.974Z,99.90
2019-02-17T03:01:04.116Z,99.90
2019-02-17T03:03:33.791Z,99.90
2019-02-17T03:06:19.487Z,99.90
2019-02-17T03:08:48.927Z,99.90
2019-02-17T03:11:18.323Z,99.90
2019-02-17T03:13:47.695Z,99.90
2019-02-17T03:16:17.098Z,99.90
2019-02-17T03:18:46.455Z,99.90
2019-02-17T03:21:15.844Z,99.90
2019-02-17T03:23:45.489Z,99.90
2019-02-17T03:26:14.694Z,99.90
2019-02-17T03:28:44.179Z,99.90
2019-02-17T03:31:13.584Z,99.90
2019-02-17T03:33:42.996Z,99.90
2019-02-17T03:36:12.913Z,99.90
2019-02-17T03:38:42.363Z,99.90
2019-02-17T03:41:11.854Z,99.90
2019-02-17T03:43:41.228Z,99.90
2019-02-17T03:46:10.943Z,99.90
2019-02-17T03:48:40.624Z,99.90
2019-02-17T03:51:09.795Z,99.90
2019-02-17T03:53:38.934Z,99.90
2019-02-17T03:56:08.032Z,99.90
2019-02-17T03:58:37.168Z,99.90
2019-02-17T04:01:06.563Z,99.90
2019-02-17T04:03:35.658Z,99.90
2019-02-17T04:06:04.798Z,99.90
2019-02-17T04:08:33.906Z,99.90
2019-02-17T04:11:03.055Z,99.90
2019-02-17T04:13:32.952Z,99.90
2019-02-17T04:16:02.669Z,99.90
2019-02-17T04:18:31.808Z,99.90
2019-02-17T04:21:01.439Z,99.90
2019-02-17T04:23:31.651Z,99.90
2019-02-17T04:26:01.266Z,99.90
2019-02-17T04:28:30.724Z,99.90
2019-02-17T04:31:00.153Z,99.90
2019-02-17T04:33:29.562Z,99.90
2019-02-17T04:35:58.672Z,99.90
2019-02-17T04:38:27.802Z,99.90
2019-02-17T04:40:57.208Z,99.90
2019-02-17T04:43:26.570Z,99.90
2019-02-17T04:45:56.261Z,99.90
2019-02-17T04:48:26.000Z,99.90
2019-02-17T04:50:55.374Z,99.90
2019-02-17T04:53:24.795Z,99.90
2019-02-17T04:55:53.904Z,99.90
2019-02-17T04:58:23.663Z,99.90
2019-02-17T05:00:53.043Z,99.90
2019-02-17T05:03:22.552Z,99.90
2019-02-17T05:05:52.464Z,99.90
2019-02-17T05:08:22.550Z,99.90
2019-02-17T05:10:52.107Z,99.90
2019-02-17T05:13:21.241Z,99.90
2019-02-17T05:15:50.678Z,99.90
2019-02-17T05:18:19.837Z,99.90
2019-02-17T05:20:49.112Z,99.90
2019-02-17T05:23:18.757Z,99.90
2019-02-17T05:25:48.692Z,99.90
2019-02-17T05:28:18.175Z,99.90
2019-02-17T05:30:52.737Z,99.90
2019-02-17T05:33:18.691Z,99.90
2019-02-17T05:35:48.066Z,99.90
2019-02-17T05:38:17.215Z,99.90
2019-02-17T05:40:47.969Z,99.90
2019-02-17T05:43:17.138Z,99.90
2019-02-17T05:45:46.349Z,99.90
2019-02-17T05:48:15.902Z,99.90
2019-02-17T05:50:45.100Z,99.90
2019-02-17T05:53:14.639Z,99.90
2019-02-17T05:55:44.014Z,99.90
2019-02-17T05:58:13.423Z,99.90
2019-02-17T06:00:42.721Z,99.90
2019-02-17T06:03:12.139Z,99.90
2019-02-17T06:05:41.946Z,99.90
2019-02-17T06:08:11.596Z,99.90
2019-02-17T06:10:40.727Z,99.90
2019-02-17T06:13:10.236Z,99.90
2019-02-17T06:15:39.419Z,99.90
2019-02-17T06:18:09.069Z,99.90
2019-02-17T06:20:38.443Z,99.90
2019-02-17T06:23:07.855Z,99.90
2019-02-17T06:25:37.499Z,99.90
2019-02-17T06:28:06.905Z,99.90
2019-02-17T06:30:36.852Z,99.90
2019-02-17T06:33:06.034Z,99.90
2019-02-17T06:35:37.801Z,99.90
2019-02-17T06:38:07.736Z,99.90
2019-02-17T06:40:37.426Z,99.90
2019-02-17T06:43:06.665Z,99.90
2019-02-17T06:45:35.775Z,99.90
2019-02-17T06:48:05.291Z,99.90
2019-02-17T06:50:34.667Z,99.90
2019-02-17T06:53:04.055Z,99.90
2019-02-17T06:55:58.285Z,99.90
2019-02-17T06:58:27.655Z,99.90
2019-02-17T07:00:59.204Z,99.90
2019-02-17T07:03:28.951Z,99.90
2019-02-17T07:06:18.915Z,99.90
2019-02-17T07:08:48.343Z,99.90
2019-02-17T07:11:18.592Z,99.90
2019-02-17T07:13:48.039Z,99.90
2019-02-17T07:16:19.152Z,99.90
2019-02-17T07:18:48.407Z,99.90
2019-02-17T07:21:18.039Z,99.90
2019-02-17T07:23:47.472Z,99.90
2019-02-17T07:26:17.435Z,99.90
2019-02-17T07:28:47.223Z,99.90
2019-02-17T07:31:16.337Z,99.90
2019-02-17T07:33:45.818Z,99.90
2019-02-17T07:36:15.005Z,99.90
2019-02-17T07:38:44.145Z,99.90
2019-02-17T07:41:13.560Z,99.90
2019-02-17T07:43:43.235Z,99.90
2019-02-17T07:46:12.958Z,99.90
2019-02-17T07:48:42.616Z,99.90
2019-02-17T07:51:12.026Z,99.90
2019-02-17T07:53:41.938Z,99.90
2019-02-17T07:56:11.139Z,99.90
2019-02-17T07:58:40.523Z,99.90
2019-02-17T08:01:10.255Z,99.90
2019-02-17T08:03:39.899Z,99.90
2019-02-17T08:06:09.036Z,99.90
2019-02-17T08:08:38.215Z,99.90
2019-02-17T08:11:07.702Z,99.90
2019-02-17T08:13:36.811Z,99.90
2019-02-17T08:16:05.935Z,99.90
2019-02-17T08:18:35.073Z,99.90
2019-02-17T08:21:04.215Z,99.90
2019-02-17T08:23:33.850Z,99.90
2019-02-17T08:26:03.599Z,99.90
2019-02-17T08:28:33.300Z,99.90
2019-02-17T08:31:02.696Z,99.90
2019-02-17T08:33:31.814Z,99.90
2019-02-17T08:36:01.663Z,99.90
2019-02-17T08:38:30.847Z,99.90
2019-02-17T08:41:00.897Z,99.90
2019-02-17T08:43:31.229Z,99.90
2019-02-17T08:46:00.649Z,99.90
2019-02-17T08:48:29.795Z,99.90
2019-02-17T08:50:59.163Z,99.90
2019-02-17T08:53:28.564Z,99.90
2019-02-17T08:55:57.950Z,99.90
2019-02-17T08:58:27.352Z,99.90
2019-02-17T09:00:56.481Z,99.90
2019-02-17T09:03:25.639Z,99.90
2019-02-17T09:05:54.752Z,99.90
2019-02-17T09:08:23.886Z,99.90
2019-02-17T09:10:53.003Z,99.90
2019-02-17T09:13:22.139Z,99.90
2019-02-17T09:15:51.243Z,99.90
2019-02-17T09:18:20.944Z,99.90
2019-02-17T09:20:50.052Z,99.90
2019-02-17T09:23:19.288Z,99.90
2019-02-17T09:25:48.387Z,99.90
2019-02-17T09:28:18.430Z,99.90
2019-02-17T09:30:48.168Z,99.90
2019-02-17T09:33:17.307Z,99.90
2019-02-17T09:35:46.967Z,99.90
2019-02-17T09:38:17.189Z,99.90
2019-02-17T09:40:47.026Z,99.90
2019-02-17T09:43:16.480Z,99.90
2019-02-17T09:45:45.758Z,99.90
2019-02-17T09:48:14.900Z,99.90
2019-02-17T09:50:44.296Z,99.90
2019-02-17T09:53:13.716Z,99.90
2019-02-17T09:55:43.087Z,99.90
2019-02-17T09:58:13.237Z,99.90
2019-02-17T10:00:42.365Z,99.90
2019-02-17T10:03:11.504Z,99.90
2019-02-17T10:05:40.615Z,99.90
2019-02-17T10:08:09.764Z,99.90
2019-02-17T10:10:38.883Z,99.90
2019-02-17T10:13:08.581Z,99.90
2019-02-17T10:15:38.243Z,99.90
2019-02-17T10:18:07.681Z,99.90
2019-02-17T10:20:36.863Z,99.90
2019-02-17T10:23:06.010Z,99.90
2019-02-17T10:25:35.442Z,99.90
2019-02-17T10:28:04.864Z,99.90
2019-02-17T10:30:34.564Z,99.90
2019-02-17T10:33:04.292Z,99.90
2019-02-17T10:35:33.405Z,99.90
2019-02-17T10:38:03.358Z,99.90
2019-02-17T10:40:32.558Z,99.90
2019-02-17T10:43:03.569Z,99.90
2019-02-17T10:45:33.695Z,99.90
2019-02-17T10:48:03.246Z,99.90
2019-02-17T10:50:33.226Z,99.90
2019-02-17T10:53:02.704Z,99.90
2019-02-17T10:55:32.074Z,99.90
2019-02-17T10:58:01.552Z,99.90
2019-02-17T11:00:30.986Z,99.90
2019-02-17T11:03:10.138Z,99.90
2019-02-17T11:05:39.235Z,99.90
2019-02-17T11:08:08.691Z,99.90
2019-02-17T11:10:38.065Z,99.90
2019-02-17T11:13:07.523Z,99.90
2019-02-17T11:15:37.154Z,99.90
2019-02-17T11:18:07.235Z,99.90
2019-02-17T11:20:36.901Z,99.90
2019-02-17T11:23:06.397Z,99.90
2019-02-17T11:25:35.531Z,99.90
2019-02-17T11:28:04.775Z,99.90
2019-02-17T11:30:33.905Z,99.90
2019-02-17T11:33:03.255Z,99.90
2019-02-17T11:35:32.373Z,99.90
2019-02-17T11:38:01.884Z,99.90
2019-02-17T11:40:31.407Z,99.90
2019-02-17T11:43:00.507Z,99.90
2019-02-17T11:45:30.330Z,99.90
2019-02-17T11:47:59.980Z,99.50
2019-02-17T11:50:29.443Z,98.80
2019-02-17T11:52:58.814Z,98.50
2019-02-17T11:55:28.525Z,97.00
2019-02-17T11:57:58.464Z,92.60
2019-02-17T12:00:28.178Z,90.40
2019-02-17T12:03:07.274Z,84.20
2019-02-17T12:05:28.439Z,76.50
2019-02-17T12:07:58.085Z,80.60
2019-02-17T12:10:27.275Z,82.00
2019-02-17T12:12:57.167Z,83.00
2019-02-17T12:15:26.972Z,79.40
2019-02-17T12:17:56.355Z,83.20
2019-02-17T12:20:56.583Z,83.20
2019-02-17T12:23:33.466Z,83.00
2019-02-17T12:26:27.820Z,91.60
2019-02-17T12:29:18.920Z,82.30
2019-02-17T12:31:48.567Z,79.20
2019-02-17T12:34:18.027Z,78.90
2019-02-17T12:36:47.407Z,75.20
2019-02-17T12:39:17.119Z,75.40
2019-02-17T12:41:46.239Z,75.20
2019-02-17T12:44:15.980Z,71.30
2019-02-17T12:46:45.083Z,72.60
2019-02-17T12:49:14.281Z,73.00
2019-02-17T12:51:43.388Z,71.70
2019-02-17T12:54:12.580Z,71.30
2019-02-17T12:56:42.218Z,70.80
2019-02-17T12:59:11.406Z,70.50
2019-02-17T13:01:40.788Z,72.20
2019-02-17T13:04:10.248Z,74.10
2019-02-17T13:06:39.670Z,73.80
2019-02-17T13:09:09.038Z,71.80
2019-02-17T13:11:38.151Z,70.10
2019-02-17T13:14:08.192Z,70.00
2019-02-17T13:16:37.404Z,70.40
2019-02-17T13:19:06.940Z,68.50
2019-02-17T13:21:36.198Z,70.00
2019-02-17T13:24:07.664Z,68.70
2019-02-17T13:26:37.102Z,68.30
2019-02-17T13:29:06.203Z,69.00
2019-02-17T13:31:35.380Z,69.30
2019-02-17T13:34:05.239Z,67.80
2019-02-17T13:36:34.409Z,66.40
2019-02-17T13:39:04.904Z,64.00
2019-02-17T13:41:34.397Z,64.70
2019-02-17T13:44:03.597Z,65.40
2019-02-17T13:46:32.782Z,64.90
2019-02-17T13:49:02.734Z,65.50
2019-02-17T13:51:31.926Z,65.30
2019-02-17T13:54:01.299Z,64.40
2019-02-17T13:56:30.595Z,63.00
2019-02-17T13:59:00.586Z,64.60
2019-02-17T14:01:30.371Z,61.60
2019-02-17T14:03:59.759Z,60.70
2019-02-17T14:06:29.210Z,61.10
2019-02-17T14:08:58.382Z,59.70
2019-02-17T14:11:28.357Z,58.50
2019-02-17T14:13:57.807Z,58.60
2019-02-17T14:16:27.239Z,59.00
2019-02-17T14:18:56.751Z,58.90
2019-02-17T14:21:25.939Z,57.30
2019-02-17T14:23:55.615Z,56.00
2019-02-17T14:26:25.070Z,57.10
2019-02-17T14:28:54.430Z,58.00
2019-02-17T14:31:23.904Z,57.20
2019-02-17T14:33:58.478Z,56.30
2019-02-17T14:36:24.247Z,55.60
2019-02-17T14:38:53.361Z,54.20
2019-02-17T14:41:22.903Z,54.10
2019-02-17T14:43:52.082Z,55.50
2019-02-17T14:46:21.643Z,55.90
2019-02-17T14:48:51.296Z,56.50
2019-02-17T14:51:20.490Z,56.30
2019-02-17T14:53:49.594Z,56.80
2019-02-17T14:56:19.067Z,55.90
2019-02-17T14:58:48.182Z,55.20
2019-02-17T15:01:17.697Z,55.30
2019-02-17T15:03:46.819Z,55.90
2019-02-17T15:06:16.051Z,58.60
2019-02-17T15:08:45.432Z,59.30
2019-02-17T15:11:14.970Z,54.50
2019-02-17T15:13:44.434Z,53.90
2019-02-17T15:16:13.734Z,54.00
2019-02-17T15:18:43.273Z,55.30
2019-02-17T15:21:12.827Z,53.80
2019-02-17T15:23:42.467Z,53.60
2019-02-17T15:26:12.320Z,53.50
2019-02-17T15:28:50.367Z,54.00
2019-02-17T15:31:12.675Z,54.40
2019-02-17T15:33:41.850Z,54.50
2019-02-17T15:36:11.094Z,54.30
2019-02-17T15:38:40.474Z,54.70
2019-02-17T15:41:10.230Z,54.80
2019-02-17T15:43:39.904Z,55.40
2019-02-17T15:46:09.571Z,56.00
2019-02-17T15:48:39.267Z,56.10
2019-02-17T15:51:08.383Z,56.20
2019-02-17T15:53:38.128Z,56.60
2019-02-17T15:56:07.506Z,57.20
2019-02-17T15:58:37.260Z,57.70
2019-02-17T16:01:06.467Z,58.40
2019-02-17T16:03:35.951Z,58.60
2019-02-17T16:06:05.318Z,58.30
2019-02-17T16:08:34.835Z,58.40
2019-02-17T16:11:04.223Z,58.60
2019-02-17T16:13:33.718Z,58.50
2019-02-17T16:16:02.829Z,58.30
2019-02-17T16:18:32.411Z,58.30
2019-02-17T16:21:01.535Z,58.80
2019-02-17T16:23:31.359Z,59.00
2019-02-17T16:26:00.809Z,59.30
2019-02-17T16:28:30.643Z,59.40
2019-02-17T16:30:59.866Z,59.80
2019-02-17T16:33:29.367Z,61.40
2019-02-17T16:35:59.007Z,60.10
2019-02-17T16:38:28.489Z,60.80
2019-02-17T16:40:57.871Z,61.10
2019-02-17T16:43:27.460Z,61.30
2019-02-17T16:45:57.107Z,61.80
2019-02-17T16:48:26.377Z,62.10
2019-02-17T16:50:55.830Z,62.50
2019-02-17T16:53:25.402Z,62.50
2019-02-17T16:55:54.766Z,63.00
2019-02-17T16:58:23.986Z,63.60
2019-02-17T17:00:53.095Z,64.20
2019-02-17T17:03:22.606Z,64.50
2019-02-17T17:05:51.800Z,64.30
2019-02-17T17:08:21.123Z,64.50
2019-02-17T17:10:50.520Z,65.60
2019-02-17T17:13:20.170Z,65.50
2019-02-17T17:15:49.811Z,66.20
2019-02-17T17:18:19.051Z,66.50
2019-02-17T17:20:48.478Z,67.10
2019-02-17T17:23:17.711Z,68.20
2019-02-17T17:25:47.061Z,69.30
2019-02-17T17:28:16.601Z,70.20
2019-02-17T17:30:45.718Z,71.70
2019-02-17T17:33:14.967Z,72.70
2019-02-17T17:35:44.687Z,74.50
2019-02-17T17:38:14.439Z,76.00
2019-02-17T17:40:43.803Z,77.60
2019-02-17T17:43:13.598Z,80.30
2019-02-17T17:45:42.717Z,84.20
2019-02-17T17:48:12.015Z,88.80
2019-02-17T17:50:41.390Z,90.60
2019-02-17T17:53:10.952Z,91.30
2019-02-17T17:55:40.338Z,92.00
2019-02-17T17:58:10.158Z,92.20
2019-02-17T18:00:39.628Z,92.90
2019-02-17T18:03:09.122Z,93.90
2019-02-17T18:05:38.654Z,94.60
2019-02-17T18:08:07.901Z,94.80
2019-02-17T18:10:37.012Z,94.00
2019-02-17T18:13:06.247Z,94.60
2019-02-17T18:15:35.876Z,94.00
2019-02-17T18:18:05.103Z,94.50
2019-02-17T18:20:34.211Z,95.50
2019-02-17T18:23:03.696Z,96.80
2019-02-17T18:25:33.275Z,98.80
2019-02-17T18:28:02.763Z,99.30
2019-02-17T18:30:32.443Z,99.90
2019-02-17T18:33:02.199Z,99.90
2019-02-17T18:35:31.578Z,99.90
2019-02-17T18:38:01.366Z,99.90
2019-02-17T18:40:30.484Z,99.90
2019-02-17T18:43:00.315Z,99.90
2019-02-17T18:45:29.946Z,99.90
2019-02-17T18:47:59.261Z,99.90
2019-02-17T18:50:28.950Z,99.90
2019-02-17T18:52:58.323Z,99.90
2019-02-17T18:55:27.636Z,99.90
2019-02-17T18:57:58.190Z,99.90
2019-02-17T19:00:27.430Z,99.90
2019-02-17T19:02:56.544Z,99.90
2019-02-17T19:05:31.860Z,99.90
2019-02-17T19:07:57.188Z,99.90
2019-02-17T19:10:26.415Z,99.90
2019-02-17T19:12:55.547Z,99.90
2019-02-17T19:15:24.788Z,99.90
2019-02-17T19:17:53.914Z,99.90
2019-02-17T19:20:23.439Z,99.90
2019-02-17T19:22:53.344Z,99.90
2019-02-17T19:25:22.916Z,99.90
2019-02-17T19:27:52.335Z,99.90
2019-02-17T19:30:21.872Z,99.90
2019-02-17T19:32:51.095Z,99.90
2019-02-17T19:35:20.357Z,99.90
2019-02-17T19:37:49.789Z,99.90
2019-02-17T19:40:19.011Z,99.90
2019-02-17T19:42:48.647Z,97.00
2019-02-17T19:45:17.899Z,94.50
2019-02-17T19:47:47.044Z,93.40
2019-02-17T19:50:16.626Z,91.80
2019-02-17T19:52:45.921Z,91.00
2019-02-17T19:55:15.435Z,91.10
2019-02-17T19:57:44.836Z,91.20
2019-02-17T20:00:14.260Z,92.10
2019-02-17T20:03:01.160Z,93.10
2019-02-17T20:05:32.655Z,93.00
2019-02-17T20:08:02.086Z,91.00
2019-02-17T20:10:31.340Z,89.10
2019-02-17T20:13:00.456Z,87.60
2019-02-17T20:15:31.343Z,86.50
2019-02-17T20:18:00.571Z,86.10
2019-02-17T20:20:30.362Z,84.90
2019-02-17T20:22:59.542Z,84.20
2019-02-17T20:25:29.055Z,82.40
2019-02-17T20:27:58.519Z,81.40
2019-02-17T20:30:27.756Z,80.80
2019-02-17T20:32:56.907Z,80.20
2019-02-17T20:35:26.443Z,80.10
2019-02-17T20:37:55.546Z,80.10
2019-02-17T20:40:24.831Z,80.50
2019-02-17T20:42:54.474Z,80.40
2019-02-17T20:45:23.972Z,79.80
2019-02-17T20:47:53.220Z,79.50
2019-02-17T20:50:22.755Z,79.30
2019-02-17T20:52:52.260Z,79.00
2019-02-17T20:55:21.858Z,79.40
2019-02-17T20:57:51.487Z,79.40
2019-02-17T21:00:22.872Z,79.40
2019-02-17T21:02:52.392Z,79.00
2019-02-17T21:05:22.116Z,78.70
2019-02-17T21:07:51.508Z,81.20
2019-02-17T21:10:21.051Z,82.50
2019-02-17T21:12:50.498Z,82.90
2019-02-17T21:15:21.559Z,83.60
2019-02-17T21:17:51.199Z,83.70
2019-02-17T21:20:20.467Z,81.40
2019-02-17T21:22:50.180Z,80.60
2019-02-17T21:25:19.333Z,80.70
2019-02-17T21:27:48.512Z,80.10
2019-02-17T21:30:17.691Z,80.00
2019-02-17T21:32:46.827Z,80.30
2019-02-17T21:35:16.251Z,80.80
2019-02-17T21:37:45.870Z,81.40
2019-02-17T21:40:15.243Z,82.20
2019-02-17T21:42:44.380Z,82.60
2019-02-17T21:45:13.755Z,83.30
2019-02-17T21:47:42.895Z,84.00
2019-02-17T21:50:12.028Z,84.40
2019-02-17T21:52:42.142Z,84.60
2019-02-17T21:55:11.724Z,84.70
2019-02-17T21:57:42.014Z,84.90
2019-02-17T22:00:14.008Z,85.00
2019-02-17T22:02:43.398Z,85.20
2019-02-17T22:05:13.070Z,85.40
2019-02-17T22:07:42.478Z,85.50
2019-02-17T22:10:11.970Z,85.70
2019-02-17T22:12:41.367Z,85.50
2019-02-17T22:15:12.207Z,85.50
2019-02-17T22:17:41.383Z,85.00
2019-02-17T22:20:10.600Z,85.40
2019-02-17T22:22:40.084Z,85.30
2019-02-17T22:25:09.644Z,85.30
2019-02-17T22:27:38.797Z,85.20
2019-02-17T22:30:08.687Z,85.20
2019-02-17T22:32:37.875Z,85.10
2019-02-17T22:35:07.537Z,84.90
2019-02-17T22:37:36.691Z,84.50
2019-02-17T22:40:06.124Z,85.20
2019-02-17T22:42:35.539Z,85.10
2019-02-17T22:45:04.739Z,85.00
2019-02-17T22:47:33.874Z,84.70
2019-02-17T22:50:02.988Z,84.70
2019-02-17T22:52:32.472Z,85.20
2019-02-17T22:55:01.844Z,85.20
2019-02-17T22:57:30.983Z,84.80
2019-02-17T23:00:00.867Z,85.50
2019-02-17T23:02:30.370Z,85.80
2019-02-17T23:04:59.477Z,86.00
2019-02-17T23:07:29.199Z,86.20
2019-02-17T23:09:58.302Z,86.40
2019-02-17T23:12:27.448Z,86.80
2019-02-17T23:14:56.558Z,87.60
2019-02-17T23:17:25.766Z,87.80
2019-02-17T23:19:55.131Z,87.90
2019-02-17T23:22:24.643Z,88.10
2019-02-17T23:24:54.814Z,88.20
2019-02-17T23:27:23.956Z,88.30
2019-02-17T23:29:53.586Z,88.40
2019-02-17T23:32:22.988Z,88.90
2019-02-17T23:34:52.370Z,89.60
2019-02-17T23:37:21.771Z,90.20
2019-02-17T23:39:50.871Z,90.80
2019-02-17T23:42:20.271Z,91.50
2019-02-17T23:44:49.895Z,92.70
2019-02-17T23:47:19.326Z,93.50
2019-02-17T23:49:48.963Z,94.30
2019-02-17T23:52:18.436Z,95.60
2019-02-17T23:54:47.540Z,96.50
2019-02-17T23:57:17.018Z,97.60
2019-02-17T23:59:46.124Z,98.70
